ΕΜΥ, Εθνική Μετεωρολογική Υπηρεσία - Δελτία Καιρού, Προγνώσεις

ΑΕΡΟΝΑΥΤΙΛΙΑ

GREEK AIRPORTS CODES

LGTP 211100Z 03009KT 9999 SCT025 17/07 Q1023 RMK BKN080=

EUROPEAN AIRPORTS CODES

LFPO 212100Z 20004KT CAVOK 15/12 Q1010 NOSIG=